Impacts METAR Board INFO
IDs:

KMKT - Mankato Rgnl, MN, US

Updated at: 0052 UTC 22 Oct 2017
Potential Impact None Slight Moderate High
Time21/12Z 21/13Z 21/14Z 21/15Z 21/16Z 21/17Z 21/18Z 21/19Z 21/20Z 21/21Z 21/22Z 21/23Z 22/00Z
VIS5 7 10 10 10 10 10 10 10 10 9 10
CIG9 9 43 13 11 13 24 19 23 -- 19 32
CoverOVCOVCOVCOVCOVCOVCOVCOVCOVCSCTOVCOVC
FltCatIFRIFRVFRMVFRMVFRMVFRMVFRMVFRMVFRVFRMVFRVFR
WXVCTS RA BRRAVCTS -RA-RA-------------RA-RA
WDir170160150160170180170170170170280290
WSpd10 16 15 17 12 16 15 15 16 16 18 10
WGst17 25 25 22 22 22 23 23 25 23 27 --
Raw hourly METARs
KMKT 211156Z AUTO 17010G17KT 5SM VCTS RA BR BKN009 OVC017 16/14 A2967 RMK AO2 PK WND 17027/1138 LTG DSNT W-NE CIG 006V013 SLP046 P0017 60017 70017 T01560144 10178 20156 53004
KMKT 211256Z AUTO 16016G25KT 7SM RA BKN009 BKN021 OVC075 15/14 A2964 RMK AO2 PK WND 16029/1234 LTG DSNT S AND SW TSE06 CIG 007V012 SLP037 P0016 T01500144
KMKT 211400Z AUTO 15015G25KT 10SM VCTS -RA FEW017 BKN043 OVC055 16/15 A2966 RMK AO2 LTG DSNT E-SW TSE1359B00 P0000
KMKT 211456Z AUTO 16017G22KT 10SM -RA FEW007 BKN013 OVC022 16/15 A2966 RMK AO2 PK WND 15026/1420 LTG DSNT E TSE1359B00E44 SLP045 P0000 60028 T01610150 55002
KMKT 211556Z AUTO 17012G22KT 10SM OVC011 17/16 A2967 RMK AO2 PK WND 15026/1513 RAE00 SLP046 P0000 T01720156

KMKT 211756Z AUTO 18016G22KT 10SM OVC013 18/16 A2966 RMK AO2 SLP043 60028 T01830161 10183 20150 58002
KMKT 211856Z AUTO 17015G23KT 10SM SCT015 OVC024 19/16 A2966 RMK AO2 SLP042 T01890161
KMKT 211956Z AUTO 17015G23KT 10SM BKN019 OVC028 19/16 A2965 RMK AO2 SLP041 T01940161
KMKT 212056Z AUTO 17016G25KT 10SM OVC023 20/16 A2963 RMK AO2 PK WND 15026/2010 SLP034 T02000161 58008
KMKT 212156Z AUTO 17016G23KT 10SM FEW025 SCT035 SCT043 20/16 A2964 RMK AO2 PK WND 19026/2116 LTG DSNT W AND NW SLP034 T02000161
KMKT 212256Z AUTO 28018G27KT 9SM -RA FEW013 BKN019 OVC026 15/12 A2971 RMK AO2 PK WND 27027/2254 WSHFT 2228 RAB18 SLP061 P0002 T01500122
KMKT 212356Z AUTO 29010KT 10SM -RA OVC032 14/11 A2976 RMK AO2 PK WND 28027/2300 RAE20B50 SLP081 P0000 60002 T01390106 10200 20139 51042